Time;durP1;ratioP1;P1;durP2;ratioP2;P2;SDS_P1;SDS_P2;PMS_P1;PMS_P2;Temp;Humidity;BMP_temperature;BMP_pressure;BME280_temperature;BME280_humidity;BME280_pressure;Samples;Min_cycle;Max_cycle;Signal;HPM_P1;HPM_P2
2021/04/10 00:00:44;;;;;;;11.43;7.78;;;;;;;7.30;66.85;99467.69;5114041;28;20057;-64
2021/04/10 00:03:16;;;;;;;12.88;8.68;;;;;;;7.30;66.64;99465.09;5095906;28;20028;-64
2021/04/10 00:05:50;;;;;;;10.43;8.15;;;;;;;7.29;66.70;99461.63;5096202;28;20036;-64
2021/04/10 00:08:21;;;;;;;12.70;8.63;;;;;;;7.29;66.60;99453.91;5096155;28;20031;-64
2021/04/10 00:10:58;;;;;;;13.45;8.80;;;;;;;7.30;66.88;99454.78;5096269;28;20077;-64
2021/04/10 00:13:29;;;;;;;10.93;7.88;;;;;;;7.29;66.70;99455.63;5113960;28;20039;-64
2021/04/10 00:16:03;;;;;;;12.60;7.93;;;;;;;7.29;66.80;99450.47;5114179;28;20513;-64
2021/04/10 00:18:38;;;;;;;9.27;7.65;;;;;;;7.28;66.73;99454.75;5113878;28;20131;-63
2021/04/10 00:21:12;;;;;;;11.88;7.57;;;;;;;7.28;66.73;99454.75;5078862;28;20055;-64
2021/04/10 00:23:46;;;;;;;13.13;8.00;;;;;;;7.30;67.02;99452.22;5114093;28;20152;-64
2021/04/10 00:26:23;;;;;;;15.93;9.60;;;;;;;7.29;67.03;99448.75;5114147;28;20129;-64
2021/04/10 00:28:54;;;;;;;11.85;8.32;;;;;;;7.30;67.22;99452.22;5113805;28;20563;-64
2021/04/10 00:31:28;;;;;;;9.75;8.73;;;;;;;7.30;67.27;99453.06;5079284;28;20044;-64
2021/04/10 00:33:59;;;;;;;10.60;8.88;;;;;;;7.31;66.82;99451.38;5112486;28;20406;-64
2021/04/10 00:36:30;;;;;;;10.85;8.45;;;;;;;7.30;67.24;99453.06;5129985;28;20042;-64
2021/04/10 00:39:04;;;;;;;11.70;8.80;;;;;;;7.31;67.19;99449.66;5078558;28;20032;-64
2021/04/10 00:41:38;;;;;;;11.02;8.40;;;;;;;7.32;66.98;99451.41;5078468;28;20442;-64
2021/04/10 00:44:08;;;;;;;11.27;8.40;;;;;;;7.31;67.24;99439.34;5078999;28;20039;-64
2021/04/10 00:46:47;;;;;;;14.10;9.18;;;;;;;7.31;67.06;99439.34;5095407;28;20081;-63
2021/04/10 00:49:18;;;;;;;12.23;9.35;;;;;;;7.32;66.94;99435.03;5112210;28;20031;-63
2021/04/10 00:51:50;;;;;;;11.35;8.98;;;;;;;7.32;67.53;99441.09;5095706;28;20077;-64
2021/04/10 00:54:24;;;;;;;13.35;9.68;;;;;;;7.34;66.99;99443.69;5112399;28;20048;-64
2021/04/10 00:56:55;;;;;;;12.55;9.40;;;;;;;7.32;67.27;99435.94;5078599;28;20044;-64
2021/04/10 00:59:29;;;;;;;;;;;;;;;7.32;67.12;99432.47;5129638;28;20027;-64
2021/04/10 01:02:02;;;;;;;13.35;9.48;;;;;;;7.30;67.20;99427.28;5111994;28;19967;-64
2021/04/10 01:04:39;;;;;;;11.63;8.52;;;;;;;7.32;67.38;99424.72;5113594;28;20040;-64
2021/04/10 01:07:07;;;;;;;11.55;8.25;;;;;;;7.32;67.40;99423.03;5114463;28;20063;-64
2021/04/10 01:09:57;;;;;;;13.07;9.40;;;;;;;7.32;67.32;99425.63;5117337;28;20470;-64
2021/04/10 01:12:35;;;;;;;11.68;9.45;;;;;;;7.31;67.45;99426.44;5116859;28;20080;-64
2021/04/10 01:15:14;;;;;;;14.57;9.70;;;;;;;7.33;67.15;99431.63;5081865;28;20070;-64
2021/04/10 01:18:18;;;;;;;9.73;8.07;;;;;;;7.34;67.34;99435.09;5099401;28;20027;-64
2021/04/10 01:21:12;;;;;;;15.00;9.55;;;;;;;7.33;67.26;99441.94;5114195;28;20040;-64
2021/04/10 01:23:52;;;;;;;12.75;8.77;;;;;;;7.32;67.51;99456.56;5117262;28;20450;-63
2021/04/10 01:27:09;;;;;;;9.85;8.27;;;;;;;7.32;67.04;99443.66;5117064;28;20506;-63
2021/04/10 01:29:51;;;;;;;11.73;8.35;;;;;;;7.32;67.15;99440.19;5084941;28;20046;-64
2021/04/10 01:32:24;;;;;;;14.00;9.93;;;;;;;7.32;67.25;99429.88;5116963;28;20040;-64
2021/04/10 01:35:02;;;;;;;12.65;9.38;;;;;;;7.32;67.56;99427.31;5098524;28;20486;-63
2021/04/10 01:37:36;;;;;;;12.02;9.10;;;;;;;7.33;67.45;99444.50;5098357;28;20122;-64
2021/04/10 01:40:18;;;;;;;12.63;9.05;;;;;;;7.33;67.35;99436.78;5098861;28;20074;-64
2021/04/10 01:42:49;;;;;;;14.27;8.15;;;;;;;7.32;67.43;99433.34;5081839;28;20048;-64
2021/04/10 01:45:24;;;;;;;11.93;8.40;;;;;;;7.31;67.45;99444.50;5098302;28;20036;-64
2021/04/10 01:48:02;;;;;;;9.50;8.40;;;;;;;7.31;67.26;99452.22;5082143;28;20031;-64
2021/04/10 01:50:43;;;;;;;10.27;8.82;;;;;;;7.32;67.51;99451.41;5132075;27;20032;-63
2021/04/10 01:53:23;;;;;;;11.23;8.98;;;;;;;7.32;67.66;99440.19;5131953;27;20035;-64
2021/04/10 01:55:58;;;;;;;11.90;8.52;;;;;;;7.33;67.72;99444.50;5098178;28;20043;-64
2021/04/10 01:58:30;;;;;;;10.43;8.20;;;;;;;7.34;67.43;99445.41;5132496;27;20093;-63
2021/04/10 02:01:02;;;;;;;11.48;8.90;;;;;;;7.34;67.33;99440.25;5098483;28;20395;-64
2021/04/10 02:03:31;;;;;;;13.23;9.07;;;;;;;7.34;67.41;99435.09;5098324;28;20145;-63
2021/04/10 02:06:03;;;;;;;12.38;8.55;;;;;;;7.34;67.82;99438.53;5098509;28;20031;-63
2021/04/10 02:08:36;;;;;;;14.00;10.98;;;;;;;7.35;67.81;99444.56;5098493;28;20027;-63
2021/04/10 02:11:11;;;;;;;11.40;8.93;;;;;;;7.35;67.66;99460.88;5097977;28;20063;-64
2021/04/10 02:13:48;;;;;;;14.25;7.80;;;;;;;7.35;67.71;99460.88;5116102;28;20031;-64
2021/04/10 02:16:14;;;;;;;10.52;7.88;;;;;;;7.35;67.55;99460.03;5116224;28;20058;-64
2021/04/10 02:18:53;;;;;;;10.52;8.82;;;;;;;7.34;67.56;99463.44;5115691;28;20130;-63
2021/04/10 02:21:26;;;;;;;11.77;9.07;;;;;;;7.34;67.89;99463.44;5097512;28;20090;-63
2021/04/10 02:23:57;;;;;;;14.32;9.48;;;;;;;7.34;67.65;99460.88;5097469;28;20043;-64
2021/04/10 02:26:37;;;;;;;11.77;9.32;;;;;;;7.34;67.72;99463.44;5097652;28;20130;-64
2021/04/10 02:29:08;;;;;;;12.82;9.73;;;;;;;7.34;67.54;99468.59;5115636;28;20123;-63
2021/04/10 02:32:18;;;;;;;15.05;10.18;;;;;;;7.34;67.47;99468.59;5116316;28;20130;-63
2021/04/10 02:35:03;;;;;;;13.88;10.63;;;;;;;7.34;67.42;99459.16;5073561;28;20054;-64
2021/04/10 02:40:07;;;;;;;11.35;8.77;;;;;;;7.33;67.83;99462.56;5144538;27;20359;-63
2021/04/10 02:42:52;;;;;;;10.07;7.90;;;;;;;7.32;67.68;99455.66;5127014;27;20094;-62
2021/04/10 02:45:32;;;;;;;9.43;7.80;;;;;;;7.32;67.63;99469.44;5109832;28;20040;-64
2021/04/10 02:48:35;;;;;;;11.18;8.63;;;;;;;7.32;67.92;99459.13;5110092;28;20114;-63
2021/04/10 02:51:16;;;;;;;12.05;9.50;;;;;;;7.32;67.84;99461.72;5092877;28;20036;-63
2021/04/10 02:53:56;;;;;;;12.05;8.23;;;;;;;7.32;67.73;99463.41;5110883;28;20486;-63
2021/04/10 02:56:38;;;;;;;11.43;8.73;;;;;;;7.31;67.65;99459.97;5109959;28;20127;-64
2021/04/10 02:59:18;;;;;;;12.38;8.48;;;;;;;7.34;68.04;99463.44;5111256;28;20046;-64
2021/04/10 03:01:56;;;;;;;8.95;8.02;;;;;;;7.32;67.77;99456.56;5111050;28;20563;-64
2021/04/10 03:04:31;;;;;;;11.98;9.18;;;;;;;7.33;68.14;99465.13;5109824;28;20036;-63
2021/04/10 03:07:04;;;;;;;10.80;8.82;;;;;;;7.34;68.19;99463.44;5110297;28;20123;-64
2021/04/10 03:09:49;;;;;;;10.65;8.95;;;;;;;7.34;67.90;99460.88;5109779;28;20039;-64
2021/04/10 03:12:23;;;;;;;12.48;9.13;;;;;;;7.33;67.47;99457.41;5110444;28;20031;-63
2021/04/10 03:14:57;;;;;;;10.57;8.45;;;;;;;7.34;67.94;99463.44;5109778;28;20044;-63
2021/04/10 03:17:30;;;;;;;12.27;8.68;;;;;;;7.33;67.81;99462.56;5092183;28;20032;-64
2021/04/10 03:20:01;;;;;;;12.68;9.57;;;;;;;7.34;68.08;99468.59;5109744;28;20497;-63
2021/04/10 03:22:33;;;;;;;10.20;8.40;;;;;;;7.34;68.20;99468.59;5109356;28;20126;-64
2021/04/10 03:25:06;;;;;;;12.82;8.98;;;;;;;7.34;67.88;99468.59;5092457;28;20447;-64
2021/04/10 03:27:38;;;;;;;10.15;8.95;;;;;;;7.35;67.72;99467.75;5109122;28;20031;-63
2021/04/10 03:30:15;;;;;;;13.85;9.80;;;;;;;7.34;67.83;99460.88;5092768;28;20032;-64
2021/04/10 03:32:46;;;;;;;11.55;9.60;;;;;;;7.33;68.04;99472.88;5110823;28;20066;-64
2021/04/10 03:35:18;;;;;;;10.45;8.05;;;;;;;7.34;67.78;99468.59;5108744;28;20052;-64
2021/04/10 03:37:58;;;;;;;13.68;7.97;;;;;;;7.34;67.83;99466.88;5108775;28;20031;-63
2021/04/10 03:40:32;;;;;;;12.55;8.52;;;;;;;7.33;67.66;99467.72;5109394;28;20089;-64
2021/04/10 03:43:07;;;;;;;11.93;9.27;;;;;;;7.33;68.00;99462.56;5110481;28;20040;-64
2021/04/10 03:45:37;;;;;;;11.60;8.97;;;;;;;7.35;68.12;99468.63;5109271;28;20063;-64
2021/04/10 03:48:10;;;;;;;11.27;9.30;;;;;;;7.34;67.77;99466.88;5091902;28;20773;-64
2021/04/10 03:50:42;;;;;;;11.93;9.30;;;;;;;7.34;67.94;99479.78;5081795;28;20070;-63
2021/04/10 03:53:13;;;;;;;12.85;9.20;;;;;;;7.35;67.60;99470.34;5078810;28;20036;-63
2021/04/10 03:55:44;;;;;;;10.65;8.60;;;;;;;7.34;68.14;99471.19;5095091;28;20043;-64
2021/04/10 03:58:18;;;;;;;11.95;9.05;;;;;;;7.34;67.89;99469.47;5096536;28;20032;-63
2021/04/10 04:00:55;;;;;;;12.55;8.57;;;;;;;7.34;67.79;99468.59;5078206;28;20089;-64
2021/04/10 04:03:29;;;;;;;10.02;8.98;;;;;;;7.34;68.13;99463.44;5094991;28;20047;-64
2021/04/10 04:06:03;;;;;;;11.52;8.25;;;;;;;7.34;68.23;99464.31;5096136;28;20027;-64
2021/04/10 04:08:31;;;;;;;10.70;8.45;;;;;;;7.35;67.96;99460.03;5077976;28;20560;-64
2021/04/10 04:11:05;;;;;;;9.02;7.78;;;;;;;7.35;67.87;99460.03;5094779;28;20044;-64
2021/04/10 04:13:41;;;;;;;10.02;8.32;;;;;;;7.34;68.07;99461.72;5078292;28;20036;-63
2021/04/10 04:16:12;;;;;;;12.40;7.72;;;;;;;7.35;68.35;99467.75;5077740;28;20502;-64
2021/04/10 04:18:46;;;;;;;9.63;8.52;;;;;;;7.36;67.94;99469.50;5094942;28;20073;-64
2021/04/10 04:21:20;;;;;;;11.55;9.55;;;;;;;7.35;67.77;99473.78;5078070;28;20113;-63
2021/04/10 04:23:50;;;;;;;12.10;9.48;;;;;;;7.36;67.91;99475.50;5077999;28;20425;-64
2021/04/10 04:26:26;;;;;;;12.05;8.88;;;;;;;7.35;67.97;99476.34;5095656;28;20032;-64
2021/04/10 04:28:59;;;;;;;10.65;9.18;;;;;;;7.35;68.12;99480.66;5078335;28;20402;-63
2021/04/10 04:31:36;;;;;;;9.57;8.57;;;;;;;7.35;67.91;99480.66;5077812;28;20036;-64
2021/04/10 04:34:07;;;;;;;11.98;9.05;;;;;;;7.34;68.21;99478.91;5077758;28;20036;-64
2021/04/10 04:36:41;;;;;;;10.02;8.52;;;;;;;7.36;68.29;99482.41;5077483;28;20042;-64
2021/04/10 04:39:13;;;;;;;11.00;8.73;;;;;;;7.36;68.27;99487.56;5077360;28;20475;-64
2021/04/10 04:41:47;;;;;;;10.63;7.75;;;;;;;7.36;68.14;99490.13;5077568;28;20043;-64
2021/04/10 04:44:24;;;;;;;12.02;8.82;;;;;;;7.36;68.10;99490.13;5094274;28;20538;-64
2021/04/10 04:46:55;;;;;;;9.70;8.65;;;;;;;7.36;68.22;99496.16;5095509;28;20039;-63
2021/04/10 04:49:29;;;;;;;9.50;8.07;;;;;;;7.35;67.57;99493.53;5077207;28;20036;-64
2021/04/10 04:52:00;;;;;;;10.05;8.55;;;;;;;7.35;68.44;99493.53;5094152;28;20028;-63
2021/04/10 04:54:31;;;;;;;11.55;9.60;;;;;;;7.35;68.15;99496.13;5077059;28;20066;-64
2021/04/10 04:56:59;;;;;;;12.68;8.95;;;;;;;7.35;68.21;99494.41;5095216;28;20124;-64
2021/04/10 04:59:31;;;;;;;10.70;8.80;;;;;;;7.36;67.98;99497.88;5093892;28;20552;-64
2021/04/10 05:01:59;;;;;;;10.77;8.07;;;;;;;7.36;67.88;99497.88;5076000;28;20036;-63
2021/04/10 05:04:30;;;;;;;11.20;8.35;;;;;;;7.35;68.08;99499.56;5076860;28;20069;-64
2021/04/10 05:07:04;;;;;;;10.77;8.88;;;;;;;7.35;67.91;99496.97;5077069;28;20069;-64
2021/04/10 05:09:35;;;;;;;12.63;8.90;;;;;;;7.35;67.94;99496.97;5076649;28;20036;-64
2021/04/10 05:12:03;;;;;;;11.05;8.90;;;;;;;7.35;68.24;99502.13;5093763;28;20089;-63
2021/04/10 05:14:37;;;;;;;10.98;8.38;;;;;;;7.35;67.90;99504.72;5076915;28;20038;-64
2021/04/10 05:17:08;;;;;;;11.75;9.00;;;;;;;7.35;68.39;99503.84;5095043;28;20518;-63
2021/04/10 05:19:42;;;;;;;11.43;8.25;;;;;;;7.35;68.06;99511.59;5076696;28;20530;-63
2021/04/10 05:22:19;;;;;;;12.25;8.55;;;;;;;7.35;68.35;99507.28;5076615;28;20036;-64
2021/04/10 05:24:47;;;;;;;10.95;8.68;;;;;;;7.35;68.03;99517.59;5094641;28;20501;-64
2021/04/10 05:27:24;;;;;;;11.00;8.55;;;;;;;7.36;68.34;99514.19;5094119;28;20407;-64
2021/04/10 05:29:57;;;;;;;9.88;8.27;;;;;;;7.36;68.13;99521.06;5094998;28;20031;-64
2021/04/10 05:32:26;;;;;;;10.48;9.20;;;;;;;7.36;67.89;99523.66;5093385;28;20063;-63
2021/04/10 05:35:00;;;;;;;11.32;8.55;;;;;;;7.35;68.14;99521.91;5076327;28;20036;-63
2021/04/10 05:37:29;;;;;;;10.52;8.93;;;;;;;7.35;68.46;99521.91;5075886;28;20051;-63
2021/04/10 05:39:59;;;;;;;13.18;8.35;;;;;;;7.36;68.17;99526.22;5094449;28;20089;-64
2021/04/10 05:42:33;;;;;;;11.43;8.63;;;;;;;7.35;67.85;99527.91;5094495;28;20036;-63
2021/04/10 05:45:06;;;;;;;12.43;8.90;;;;;;;7.36;68.25;99532.22;5092910;28;20483;-63
2021/04/10 05:47:37;;;;;;;12.18;8.98;;;;;;;7.35;67.93;99535.66;5092674;28;20074;-63
2021/04/10 05:50:11;;;;;;;11.05;8.77;;;;;;;7.37;67.87;99527.97;5093570;28;20033;-64
2021/04/10 05:52:44;;;;;;;11.52;8.38;;;;;;;7.36;68.02;99534.81;5094489;28;20068;-63
2021/04/10 05:55:16;;;;;;;10.90;8.90;;;;;;;7.38;67.92;99537.44;5093316;28;20054;-63
2021/04/10 05:57:50;;;;;;;9.20;7.90;;;;;;;7.37;68.15;99539.13;5092786;28;20036;-64
2021/04/10 06:00:22;;;;;;;11.60;9.05;;;;;;;7.37;67.94;99530.53;5075721;28;20042;-64
2021/04/10 06:02:54;;;;;;;9.90;8.25;;;;;;;7.37;68.13;99544.28;5093247;28;20044;-63
2021/04/10 06:05:28;;;;;;;9.90;8.07;;;;;;;7.37;68.33;99541.72;5076262;28;20075;-64
2021/04/10 06:08:01;;;;;;;;;;;;;;;7.35;68.20;99543.38;5094377;28;20051;-63
2021/04/10 06:10:32;;;;;;;11.80;7.93;;;;;;;7.36;68.15;99544.28;5109601;28;19911;-63
2021/04/10 06:13:08;;;;;;;10.45;8.85;;;;;;;7.36;68.45;99550.28;5092899;28;20036;-64
2021/04/10 06:15:39;;;;;;;12.15;9.98;;;;;;;7.35;68.18;99545.97;5076174;28;20039;-64
2021/04/10 06:18:12;;;;;;;12.07;9.30;;;;;;;7.37;68.69;99544.28;5075420;28;20119;-63
2021/04/10 06:20:43;;;;;;;12.18;8.93;;;;;;;7.37;68.29;99551.16;5075906;28;20032;-64
2021/04/10 06:23:11;;;;;;;13.80;9.23;;;;;;;7.37;68.71;99557.19;5092555;28;20047;-63
2021/04/10 06:25:51;;;;;;;12.63;9.57;;;;;;;7.37;68.25;99557.19;5093009;28;20032;-64
2021/04/10 06:28:25;;;;;;;11.50;8.63;;;;;;;7.37;68.48;99562.34;5075468;28;20043;-63
2021/04/10 06:30:55;;;;;;;11.50;8.93;;;;;;;7.38;68.20;99561.50;5092670;28;20040;-64
2021/04/10 06:33:32;;;;;;;12.10;9.65;;;;;;;7.37;68.19;99562.34;5075943;28;20048;-64
2021/04/10 06:36:06;;;;;;;10.68;9.32;;;;;;;7.40;68.28;99569.25;5093371;28;20044;-63
2021/04/10 06:38:37;;;;;;;12.10;9.35;;;;;;;7.39;68.30;99554.66;5091867;28;20051;-64
2021/04/10 06:41:07;;;;;;;13.90;9.77;;;;;;;7.39;68.22;99557.22;5093106;28;20539;-63
2021/04/10 06:43:40;;;;;;;11.13;9.07;;;;;;;7.40;68.39;99566.69;5092446;28;20120;-64
2021/04/10 06:46:13;;;;;;;16.05;10.27;;;;;;;7.41;68.28;99566.72;5075321;28;20032;-63
2021/04/10 06:48:45;;;;;;;13.90;10.85;;;;;;;7.41;68.64;99561.56;5075582;28;20036;-63
2021/04/10 06:51:14;;;;;;;14.23;9.90;;;;;;;7.41;68.37;99566.72;5093622;28;20044;-64
2021/04/10 06:53:45;;;;;;;13.10;10.00;;;;;;;7.42;68.54;99565.91;5092143;28;20089;-63
2021/04/10 06:56:17;;;;;;;14.85;10.05;;;;;;;7.41;68.33;99564.16;5093511;28;20035;-63
2021/04/10 06:59:05;;;;;;;14.00;12.13;;;;;;;7.43;68.61;99570.22;5093372;28;20036;-64
2021/04/10 07:01:33;;;;;;;15.05;10.90;;;;;;;7.44;68.93;99571.06;5075504;28;20090;-63
2021/04/10 07:04:07;;;;;;;12.43;11.00;;;;;;;7.44;68.63;99573.66;5093255;28;20090;-64
2021/04/10 07:06:39;;;;;;;15.95;11.65;;;;;;;7.43;68.43;99570.22;5093609;28;20040;-64
2021/04/10 07:09:12;;;;;;;15.00;11.43;;;;;;;7.44;68.85;99573.66;5092087;28;20032;-64
2021/04/10 07:11:43;;;;;;;15.40;11.55;;;;;;;7.44;68.52;99571.06;5093218;28;20046;-64
2021/04/10 07:14:12;;;;;;;15.95;12.55;;;;;;;7.45;68.58;99570.22;5075511;28;20131;-64
2021/04/10 07:16:44;;;;;;;18.70;12.43;;;;;;;7.44;68.54;99574.53;5093752;28;20032;-62
2021/04/10 07:19:11;;;;;;;17.40;11.13;;;;;;;7.46;68.98;99575.44;5074964;28;20042;-62
2021/04/10 07:21:42;;;;;;;17.92;13.27;;;;;;;7.47;68.99;99578.88;5093141;28;20063;-63
2021/04/10 07:24:14;;;;;;;19.38;14.55;;;;;;;7.46;68.82;99575.44;5092280;28;20086;-62
2021/04/10 07:26:50;;;;;;;20.13;12.50;;;;;;;7.47;68.56;99582.31;5096013;28;20082;-62
2021/04/10 07:29:32;;;;;;;15.43;11.75;;;;;;;7.46;68.46;99572.88;5097247;28;20097;-62
2021/04/10 07:32:26;;;;;;;18.00;13.68;;;;;;;7.47;68.66;99576.28;5078599;28;20147;-62
2021/04/10 07:34:52;;;;;;;20.02;11.68;;;;;;;7.47;69.01;99573.72;5095505;28;20111;-62
2021/04/10 07:37:37;;;;;;;18.40;12.52;;;;;;;7.46;68.59;99574.56;5095475;28;20127;-64
2021/04/10 07:40:13;;;;;;;16.25;12.93;;;;;;;7.47;68.93;99576.28;5078593;28;20044;-64
2021/04/10 07:42:41;;;;;;;16.27;12.27;;;;;;;7.47;68.92;99579.72;5095494;28;20039;-62
2021/04/10 07:45:34;;;;;;;18.23;13.02;;;;;;;7.46;68.50;99571.97;5078442;28;20119;-62
2021/04/10 07:48:17;;;;;;;15.45;11.85;;;;;;;7.47;68.31;99574.56;5096777;28;20036;-63
2021/04/10 07:50:48;;;;;;;18.65;13.10;;;;;;;7.47;68.59;99574.56;5096561;28;20528;-64
2021/04/10 07:53:26;;;;;;;17.75;13.45;;;;;;;7.48;68.86;99578.03;5095092;28;20044;-64
2021/04/10 07:55:54;;;;;;;21.10;13.32;;;;;;;7.49;68.99;99574.63;5096737;28;20035;-64
2021/04/10 07:58:27;;;;;;;19.33;12.45;;;;;;;7.50;68.92;99578.06;5078488;28;20039;-64
2021/04/10 08:01:13;;;;;;;16.80;13.18;;;;;;;7.50;68.79;99584.09;5095345;28;20068;-64
2021/04/10 08:03:41;;;;;;;14.95;12.55;;;;;;;7.50;68.85;99578.94;5111680;28;20173;-64
2021/04/10 08:06:09;;;;;;;18.45;11.70;;;;;;;7.51;68.61;99579.81;5077947;28;20089;-64
2021/04/10 08:08:54;;;;;;;18.50;14.00;;;;;;;7.50;68.77;99578.94;5095773;28;20441;-64
2021/04/10 08:11:30;;;;;;;17.00;12.82;;;;;;;7.51;68.80;99583.28;5077868;28;20036;-64
2021/04/10 08:13:58;;;;;;;18.30;13.38;;;;;;;7.51;68.62;99575.53;5077402;28;20113;-64
2021/04/10 08:16:25;;;;;;;23.23;13.90;;;;;;;7.52;68.76;99581.53;5077775;28;20430;-64
2021/04/10 08:19:00;;;;;;;19.10;13.57;;;;;;;7.51;68.83;99578.09;5077697;28;20040;-64
2021/04/10 08:21:32;;;;;;;18.92;12.68;;;;;;;7.52;68.67;99586.69;5096188;28;20119;-64
2021/04/10 08:24:20;;;;;;;20.55;14.45;;;;;;;7.52;68.63;99587.59;5077770;28;20036;-64
2021/04/10 08:26:45;;;;;;;18.38;12.95;;;;;;;7.52;69.11;99587.59;5094198;28;20040;-64
2021/04/10 08:29:13;;;;;;;18.25;14.15;;;;;;;7.53;68.98;99585.88;5094303;28;20407;-64
2021/04/10 08:31:45;;;;;;;21.40;15.25;;;;;;;7.53;68.77;99588.44;5095666;28;20036;-64
2021/04/10 08:34:16;;;;;;;22.75;16.48;;;;;;;7.54;68.96;99585.03;5094389;28;20050;-64
2021/04/10 08:36:46;;;;;;;22.77;15.65;;;;;;;7.54;68.93;99590.19;5095299;28;20036;-64
2021/04/10 08:39:17;;;;;;;23.65;15.60;;;;;;;7.54;68.88;99585.91;5095070;28;20040;-64
2021/04/10 08:41:54;;;;;;;18.13;13.65;;;;;;;7.54;68.99;99592.78;5093904;28;20063;-64
2021/04/10 08:44:27;;;;;;;18.77;13.15;;;;;;;7.55;69.22;99589.34;5111170;28;20040;-64
2021/04/10 08:47:00;;;;;;;20.75;15.60;;;;;;;7.56;69.06;99583.34;5095108;28;20074;-64
2021/04/10 08:49:34;;;;;;;23.48;15.52;;;;;;;7.55;69.14;99577.31;5077196;28;20060;-64
2021/04/10 08:52:08;;;;;;;17.55;14.52;;;;;;;7.55;69.25;99574.72;5076914;28;20040;-64
2021/04/10 08:54:41;;;;;;;20.05;15.02;;;;;;;7.55;69.16;99577.31;5095430;28;20036;-64
2021/04/10 08:57:15;;;;;;;22.33;16.83;;;;;;;7.55;68.75;99584.19;5094722;28;20081;-64
2021/04/10 08:59:53;;;;;;;20.00;15.73;;;;;;;7.56;68.95;99583.34;5077350;28;20044;-64
2021/04/10 09:02:25;;;;;;;19.33;14.95;;;;;;;7.54;68.84;99582.44;5094518;28;20036;-64
2021/04/10 09:05:07;;;;;;;22.02;16.17;;;;;;;7.55;68.90;99584.19;5095155;28;20039;-64
2021/04/10 09:08:02;;;;;;;19.40;14.40;;;;;;;7.53;68.82;99586.75;5094666;28;20039;-64
2021/04/10 09:10:27;;;;;;;22.35;16.30;;;;;;;7.54;68.97;99585.91;5084294;28;20040;-64
2021/04/10 09:13:05;;;;;;;24.20;16.15;;;;;;;7.54;68.92;99588.50;5093611;28;20032;-64
2021/04/10 09:15:39;;;;;;;19.58;14.63;;;;;;;7.54;68.98;99588.50;5093716;28;20066;-64
2021/04/10 09:18:10;;;;;;;24.35;17.10;;;;;;;7.54;69.23;99583.34;5095352;28;20068;-64
2021/04/10 09:20:47;;;;;;;23.17;15.15;;;;;;;7.55;69.20;99569.56;5094731;28;20028;-64
2021/04/10 09:23:22;;;;;;;23.38;15.13;;;;;;;7.54;69.15;99573.03;5092968;28;20039;-64
2021/04/10 09:26:07;;;;;;;20.33;15.32;;;;;;;7.54;68.90;99572.13;5076524;28;20109;-64
2021/04/10 09:28:53;;;;;;;;;;;;;;;7.53;69.06;99572.97;5093891;28;20487;-64
2021/04/10 09:31:42;;;;;;;21.30;15.15;;;;;;;7.53;69.38;99572.97;5093144;28;19954;-64
2021/04/10 09:34:45;;;;;;;18.02;12.32;;;;;;;7.53;68.96;99579.00;5094568;28;20407;-64
2021/04/10 09:37:37;;;;;;;20.23;13.45;;;;;;;7.53;69.22;99581.59;5093148;28;20161;-64
2021/04/10 09:40:18;;;;;;;20.50;15.05;;;;;;;7.53;68.91;99573.84;5068120;28;20044;-64
2021/04/10 09:42:45;;;;;;;16.88;13.95;;;;;;;7.54;69.00;99582.44;5076475;28;20157;-64
2021/04/10 09:45:20;;;;;;;17.30;13.38;;;;;;;7.55;69.42;99577.31;5094375;28;20049;-64
2021/04/10 09:48:05;;;;;;;22.23;15.07;;;;;;;7.55;68.95;99586.78;5075629;28;20451;-64
2021/04/10 09:50:37;;;;;;;20.40;14.00;;;;;;;7.55;69.29;99574.72;5076767;28;20071;-64
2021/04/10 09:53:24;;;;;;;18.20;13.70;;;;;;;7.56;68.94;99571.31;5076357;28;20449;-64
2021/04/10 09:55:59;;;;;;;20.73;14.38;;;;;;;7.56;69.19;99568.75;5076099;28;20040;-64
2021/04/10 09:58:39;;;;;;;19.33;14.57;;;;;;;7.57;69.37;99567.91;5092365;28;20036;-64
2021/04/10 10:01:21;;;;;;;21.52;14.35;;;;;;;7.57;69.51;99567.91;5092794;28;20395;-64
2021/04/10 10:03:53;;;;;;;19.40;13.38;;;;;;;7.56;68.99;99563.59;5092812;28;20113;-64
2021/04/10 10:06:39;;;;;;;21.70;14.82;;;;;;;7.57;68.88;99560.16;5093005;28;20032;-64
2021/04/10 10:09:27;;;;;;;16.50;13.95;;;;;;;7.56;69.30;99557.56;5094074;28;20093;-64
2021/04/10 10:12:04;;;;;;;17.55;13.00;;;;;;;7.57;69.20;99555.00;5093979;28;20048;-64
2021/04/10 10:14:52;;;;;;;18.40;14.65;;;;;;;7.56;69.05;99555.00;5075768;28;20032;-64
2021/04/10 10:17:27;;;;;;;15.88;12.20;;;;;;;7.58;69.01;99553.31;5092809;28;20039;-64
2021/04/10 10:20:17;;;;;;;19.20;12.93;;;;;;;7.56;68.87;99550.69;5076090;28;20040;-64
2021/04/10 10:22:49;;;;;;;16.10;13.20;;;;;;;7.56;69.30;99549.84;5092584;28;20032;-64
2021/04/10 10:25:20;;;;;;;16.98;13.40;;;;;;;7.56;69.51;99545.53;5092459;28;20475;-64
2021/04/10 10:27:56;;;;;;;19.98;13.25;;;;;;;7.57;69.18;99539.53;5092353;28;20031;-64
2021/04/10 10:30:32;;;;;;;17.63;12.93;;;;;;;7.58;69.26;99536.13;5092565;28;20387;-64
2021/04/10 10:33:05;;;;;;;18.70;13.60;;;;;;;7.58;69.41;99537.84;5092702;28;20032;-64
2021/04/10 10:35:39;;;;;;;18.20;12.65;;;;;;;7.57;69.34;99536.94;5092433;28;20036;-64
2021/04/10 10:38:16;;;;;;;16.77;13.45;;;;;;;7.58;69.38;99532.69;5093332;28;20491;-64
2021/04/10 10:40:53;;;;;;;18.13;14.38;;;;;;;7.57;69.31;99529.22;5092398;28;20138;-64
2021/04/10 10:43:28;;;;;;;17.10;11.60;;;;;;;7.56;69.30;99529.19;5075875;28;20062;-64
2021/04/10 10:46:04;;;;;;;17.77;12.25;;;;;;;7.57;69.55;99525.78;5093415;28;20040;-64
2021/04/10 10:48:43;;;;;;;17.63;13.10;;;;;;;7.57;69.38;99516.31;5092941;28;20491;-64
2021/04/10 10:51:20;;;;;;;16.92;12.50;;;;;;;7.58;68.94;99515.50;5092781;28;20174;-64
2021/04/10 10:53:55;;;;;;;17.60;13.27;;;;;;;7.58;69.29;99520.66;5076244;28;20036;-64
2021/04/10 10:56:37;;;;;;;14.93;12.98;;;;;;;7.57;69.47;99513.75;5093670;28;20028;-64
2021/04/10 10:59:09;;;;;;;12.27;10.85;;;;;;;7.58;69.13;99500.00;5074732;28;20070;-64
2021/04/10 11:01:43;;;;;;;14.40;12.50;;;;;;;7.58;69.19;99504.31;5097785;28;20431;-64
2021/04/10 11:04:25;;;;;;;17.85;14.02;;;;;;;7.59;69.47;99499.19;5098104;28;20113;-64
2021/04/10 11:07:00;;;;;;;14.45;12.05;;;;;;;7.59;69.10;99490.59;5096623;28;20044;-64
2021/04/10 11:09:35;;;;;;;15.48;11.98;;;;;;;7.60;69.27;99482.00;5097483;28;20077;-64
2021/04/10 11:12:12;;;;;;;15.65;11.20;;;;;;;7.60;69.03;99479.44;5080289;28;20100;-64
2021/04/10 11:14:47;;;;;;;14.15;11.40;;;;;;;7.59;69.49;99473.38;5079642;28;20036;-64
2021/04/10 11:17:32;;;;;;;15.80;11.82;;;;;;;7.59;69.33;99470.81;5096604;28;20044;-65
2021/04/10 11:20:31;;;;;;;15.00;12.18;;;;;;;7.60;69.17;99464.81;5095923;28;20055;-64
2021/04/10 11:23:10;;;;;;;16.02;12.00;;;;;;;7.60;69.32;99457.06;5096061;28;20072;-64
2021/04/10 11:25:53;;;;;;;17.35;12.05;;;;;;;7.60;69.22;99454.50;5097013;28;20043;-64
2021/04/10 11:28:33;;;;;;;14.95;12.07;;;;;;;7.60;69.34;99454.50;5096039;28;20126;-64
2021/04/10 11:31:08;;;;;;;12.75;10.60;;;;;;;7.61;69.36;99450.22;5097542;28;20119;-64
2021/04/10 11:33:42;;;;;;;13.57;10.75;;;;;;;7.63;69.15;99448.50;5078686;28;20043;-65
2021/04/10 11:36:13;;;;;;;15.60;11.77;;;;;;;7.62;69.53;99442.50;5097010;28;20036;-64
2021/04/10 11:39:03;;;;;;;14.20;12.25;;;;;;;7.62;69.13;99439.91;5096642;28;20076;-64
2021/04/10 11:41:47;;;;;;;16.02;12.35;;;;;;;7.62;69.14;99432.19;5075148;28;20055;-62
2021/04/10 11:44:15;;;;;;;15.45;12.43;;;;;;;7.65;69.61;99440.81;5078352;28;20131;-62
2021/04/10 11:47:02;;;;;;;18.52;12.90;;;;;;;7.62;69.58;99437.34;5095634;28;20104;-62
2021/04/10 11:49:30;;;;;;;17.45;13.77;;;;;;;7.64;69.70;99439.09;5078300;28;20032;-63
2021/04/10 11:52:14;;;;;;;13.30;11.18;;;;;;;7.64;69.03;99439.94;5078545;28;20036;-63
2021/04/10 11:54:48;;;;;;;19.42;14.18;;;;;;;7.64;69.32;99439.94;5078083;28;20556;-63
2021/04/10 11:57:28;;;;;;;18.67;13.65;;;;;;;7.65;69.55;99435.66;5095602;28;20035;-63
2021/04/10 12:00:06;;;;;;;16.58;12.35;;;;;;;7.64;69.35;99436.50;5096165;28;20340;-63
2021/04/10 12:02:40;;;;;;;17.88;14.27;;;;;;;7.64;69.69;99431.34;5095185;28;20059;-62
2021/04/10 12:05:23;;;;;;;15.18;12.10;;;;;;;7.65;69.43;99433.94;5096210;28;20063;-62
2021/04/10 12:08:08;;;;;;;18.77;14.13;;;;;;;7.65;69.63;99428.78;5095028;28;20062;-63
2021/04/10 12:10:50;;;;;;;18.88;13.23;;;;;;;7.65;69.77;99422.78;5094554;28;20415;-63
2021/04/10 12:13:30;;;;;;;18.70;11.80;;;;;;;7.65;69.38;99408.16;5095005;28;20032;-63